sensor_id;sensor_type;location;lat;lon;timestamp;pressure;altitude;pressure_sealevel;temperature;humidity
8941;BME280;4505;43.406;23.226;2023-10-09T00:00:32;100415.28;;;18.74;90.52
8941;BME280;4505;43.406;23.226;2023-10-09T00:03:16;100421.75;;;18.73;90.94
8941;BME280;4505;43.406;23.226;2023-10-09T00:05:42;100427.13;;;18.63;91.78
8941;BME280;4505;43.406;23.226;2023-10-09T00:08:13;100430.03;;;18.31;96.72
8941;BME280;4505;43.406;23.226;2023-10-09T00:10:47;100435.34;;;18.16;100.00
8941;BME280;4505;43.406;23.226;2023-10-09T00:13:18;100431.50;;;17.82;100.00
8941;BME280;4505;43.406;23.226;2023-10-09T00:15:45;100430.56;;;17.52;100.00
8941;BME280;4505;43.406;23.226;2023-10-09T00:20:48;100436.03;;;17.30;100.00
8941;BME280;4505;43.406;23.226;2023-10-09T00:23:21;100431.75;;;17.39;100.00
8941;BME280;4505;43.406;23.226;2023-10-09T00:25:51;100445.41;;;17.69;100.00
8941;BME280;4505;43.406;23.226;2023-10-09T00:28:34;100449.47;;;17.77;100.00
8941;BME280;4505;43.406;23.226;2023-10-09T00:31:03;100444.84;;;17.67;100.00
8941;BME280;4505;43.406;23.226;2023-10-09T00:33:32;100450.59;;;17.44;100.00
8941;BME280;4505;43.406;23.226;2023-10-09T00:36:01;100440.03;;;17.33;100.00
8941;BME280;4505;43.406;23.226;2023-10-09T00:38:35;100450.31;;;17.04;100.00
8941;BME280;4505;43.406;23.226;2023-10-09T00:41:04;100453.91;;;17.14;100.00
8941;BME280;4505;43.406;23.226;2023-10-09T00:43:36;100459.72;;;17.01;100.00
8941;BME280;4505;43.406;23.226;2023-10-09T00:46:04;100478.13;;;16.40;100.00
8941;BME280;4505;43.406;23.226;2023-10-09T00:48:36;100472.06;;;16.23;100.00
8941;BME280;4505;43.406;23.226;2023-10-09T00:51:05;100465.09;;;16.22;100.00
8941;BME280;4505;43.406;23.226;2023-10-09T00:53:42;100470.09;;;16.13;100.00
8941;BME280;4505;43.406;23.226;2023-10-09T00:56:09;100473.44;;;15.82;100.00
8941;BME280;4505;43.406;23.226;2023-10-09T00:58:44;100478.69;;;15.94;100.00
8941;BME280;4505;43.406;23.226;2023-10-09T01:01:12;100488.50;;;16.53;100.00
8941;BME280;4505;43.406;23.226;2023-10-09T01:03:41;100502.94;;;16.04;100.00
8941;BME280;4505;43.406;23.226;2023-10-09T01:06:09;100506.91;;;16.01;100.00
8941;BME280;4505;43.406;23.226;2023-10-09T01:08:47;100510.75;;;15.89;100.00
8941;BME280;4505;43.406;23.226;2023-10-09T01:11:32;100493.56;;;15.13;100.00
8941;BME280;4505;43.406;23.226;2023-10-09T01:13:59;100489.97;;;14.75;100.00
8941;BME280;4505;43.406;23.226;2023-10-09T01:16:37;100504.22;;;14.64;100.00
8941;BME280;4505;43.406;23.226;2023-10-09T01:19:06;100508.16;;;14.45;100.00
8941;BME280;4505;43.406;23.226;2023-10-09T01:21:38;100514.25;;;14.17;100.00
8941;BME280;4505;43.406;23.226;2023-10-09T01:24:07;100515.84;;;14.18;100.00
8941;BME280;4505;43.406;23.226;2023-10-09T01:26:34;100522.97;;;14.12;100.00
8941;BME280;4505;43.406;23.226;2023-10-09T01:29:09;100515.44;;;14.49;100.00
8941;BME280;4505;43.406;23.226;2023-10-09T01:31:39;100529.97;;;14.53;100.00
8941;BME280;4505;43.406;23.226;2023-10-09T01:34:09;100530.50;;;14.15;100.00
8941;BME280;4505;43.406;23.226;2023-10-09T01:36:37;100539.22;;;14.22;100.00
8941;BME280;4505;43.406;23.226;2023-10-09T01:39:05;100535.88;;;13.92;100.00
8941;BME280;4505;43.406;23.226;2023-10-09T01:41:36;100544.13;;;14.02;100.00
8941;BME280;4505;43.406;23.226;2023-10-09T01:44:11;100551.94;;;13.81;100.00
8941;BME280;4505;43.406;23.226;2023-10-09T01:46:41;100561.31;;;13.72;100.00
8941;BME280;4505;43.406;23.226;2023-10-09T01:49:07;100566.31;;;13.68;100.00
8941;BME280;4505;43.406;23.226;2023-10-09T01:51:42;100568.75;;;13.70;100.00
8941;BME280;4505;43.406;23.226;2023-10-09T01:54:08;100574.19;;;13.63;100.00
8941;BME280;4505;43.406;23.226;2023-10-09T01:56:42;100574.31;;;13.45;100.00
8941;BME280;4505;43.406;23.226;2023-10-09T01:59:12;100575.81;;;13.87;100.00
8941;BME280;4505;43.406;23.226;2023-10-09T02:01:41;100580.59;;;13.62;100.00
8941;BME280;4505;43.406;23.226;2023-10-09T02:04:13;100579.88;;;13.55;100.00
8941;BME280;4505;43.406;23.226;2023-10-09T02:06:45;100579.06;;;13.78;100.00
8941;BME280;4505;43.406;23.226;2023-10-09T02:09:15;100596.38;;;13.41;100.00
8941;BME280;4505;43.406;23.226;2023-10-09T02:11:53;100587.16;;;13.25;100.00
8941;BME280;4505;43.406;23.226;2023-10-09T02:14:20;100591.31;;;13.10;100.00
8941;BME280;4505;43.406;23.226;2023-10-09T02:16:48;100592.44;;;13.02;100.00
8941;BME280;4505;43.406;23.226;2023-10-09T02:19:33;100598.19;;;12.99;100.00
8941;BME280;4505;43.406;23.226;2023-10-09T02:22:00;100591.09;;;12.93;100.00
8941;BME280;4505;43.406;23.226;2023-10-09T02:24:28;100589.13;;;12.88;100.00
8941;BME280;4505;43.406;23.226;2023-10-09T02:27:16;100600.69;;;13.12;100.00
8941;BME280;4505;43.406;23.226;2023-10-09T02:30:05;100613.13;;;13.30;100.00
8941;BME280;4505;43.406;23.226;2023-10-09T02:32:40;100617.50;;;13.13;100.00
8941;BME280;4505;43.406;23.226;2023-10-09T02:35:08;100627.66;;;13.34;100.00
8941;BME280;4505;43.406;23.226;2023-10-09T02:37:44;100631.34;;;13.21;100.00
8941;BME280;4505;43.406;23.226;2023-10-09T02:40:12;100627.56;;;12.81;100.00
8941;BME280;4505;43.406;23.226;2023-10-09T02:42:49;100634.13;;;12.96;100.00
8941;BME280;4505;43.406;23.226;2023-10-09T02:45:16;100636.34;;;12.52;100.00
8941;BME280;4505;43.406;23.226;2023-10-09T02:47:43;100633.44;;;12.35;100.00
8941;BME280;4505;43.406;23.226;2023-10-09T02:50:14;100634.50;;;12.34;100.00
8941;BME280;4505;43.406;23.226;2023-10-09T02:52:46;100642.41;;;12.23;100.00
8941;BME280;4505;43.406;23.226;2023-10-09T02:55:17;100646.34;;;12.20;100.00
8941;BME280;4505;43.406;23.226;2023-10-09T02:57:50;100645.56;;;12.13;100.00
8941;BME280;4505;43.406;23.226;2023-10-09T03:00:21;100641.47;;;12.11;100.00
8941;BME280;4505;43.406;23.226;2023-10-09T03:02:54;100645.91;;;11.99;100.00
8941;BME280;4505;43.406;23.226;2023-10-09T03:05:23;100640.22;;;11.95;100.00
8941;BME280;4505;43.406;23.226;2023-10-09T03:07:52;100641.19;;;12.19;100.00
8941;BME280;4505;43.406;23.226;2023-10-09T03:10:18;100629.81;;;12.48;100.00
8941;BME280;4505;43.406;23.226;2023-10-09T03:12:45;100637.44;;;12.26;100.00
8941;BME280;4505;43.406;23.226;2023-10-09T03:15:18;100645.94;;;12.35;100.00
8941;BME280;4505;43.406;23.226;2023-10-09T03:17:45;100645.78;;;12.66;100.00
8941;BME280;4505;43.406;23.226;2023-10-09T03:20:13;100637.81;;;12.30;100.00
8941;BME280;4505;43.406;23.226;2023-10-09T03:22:40;100643.88;;;12.37;100.00
8941;BME280;4505;43.406;23.226;2023-10-09T03:25:08;100649.94;;;12.26;100.00
8941;BME280;4505;43.406;23.226;2023-10-09T03:27:37;100643.78;;;12.07;100.00
8941;BME280;4505;43.406;23.226;2023-10-09T03:30:07;100647.75;;;11.98;100.00
8941;BME280;4505;43.406;23.226;2023-10-09T03:32:36;100647.75;;;11.98;100.00
8941;BME280;4505;43.406;23.226;2023-10-09T03:35:04;100646.59;;;11.94;100.00
8941;BME280;4505;43.406;23.226;2023-10-09T03:37:35;100651.53;;;11.91;100.00
8941;BME280;4505;43.406;23.226;2023-10-09T03:40:04;100654.25;;;11.84;100.00
8941;BME280;4505;43.406;23.226;2023-10-09T03:42:33;100649.75;;;11.85;100.00
8941;BME280;4505;43.406;23.226;2023-10-09T03:45:01;100652.78;;;11.88;100.00
8941;BME280;4505;43.406;23.226;2023-10-09T03:47:39;100651.72;;;12.14;100.00
8941;BME280;4505;43.406;23.226;2023-10-09T03:50:08;100644.59;;;11.90;100.00
8941;BME280;4505;43.406;23.226;2023-10-09T03:52:49;100649.63;;;11.98;100.00
8941;BME280;4505;43.406;23.226;2023-10-09T03:55:15;100648.41;;;11.94;100.00
8941;BME280;4505;43.406;23.226;2023-10-09T03:57:42;100661.44;;;11.77;100.00
8941;BME280;4505;43.406;23.226;2023-10-09T04:00:11;100665.50;;;11.86;100.00
8941;BME280;4505;43.406;23.226;2023-10-09T04:02:54;100664.94;;;11.78;100.00
8941;BME280;4505;43.406;23.226;2023-10-09T04:05:20;100668.25;;;11.73;100.00
8941;BME280;4505;43.406;23.226;2023-10-09T04:07:47;100667.47;;;11.66;100.00
8941;BME280;4505;43.406;23.226;2023-10-09T04:10:14;100666.09;;;11.57;100.00
8941;BME280;4505;43.406;23.226;2023-10-09T04:12:58;100663.66;;;11.55;100.00
8941;BME280;4505;43.406;23.226;2023-10-09T04:15:25;100669.38;;;11.59;100.00
8941;BME280;4505;43.406;23.226;2023-10-09T04:17:57;100670.78;;;11.62;100.00
8941;BME280;4505;43.406;23.226;2023-10-09T04:20:23;100683.03;;;11.63;100.00
8941;BME280;4505;43.406;23.226;2023-10-09T04:23:07;100685.84;;;11.43;100.00
8941;BME280;4505;43.406;23.226;2023-10-09T04:25:34;100683.69;;;11.58;100.00
8941;BME280;4505;43.406;23.226;2023-10-09T04:28:10;100687.53;;;11.69;100.00
8941;BME280;4505;43.406;23.226;2023-10-09T04:30:44;100699.41;;;11.66;100.00
8941;BME280;4505;43.406;23.226;2023-10-09T04:33:13;100697.19;;;11.63;100.00
8941;BME280;4505;43.406;23.226;2023-10-09T04:35:53;100706.94;;;11.69;100.00
8941;BME280;4505;43.406;23.226;2023-10-09T04:38:41;100704.53;;;12.17;100.00
8941;BME280;4505;43.406;23.226;2023-10-09T04:41:20;100700.53;;;11.83;100.00
8941;BME280;4505;43.406;23.226;2023-10-09T04:43:53;100707.56;;;11.71;100.00
8941;BME280;4505;43.406;23.226;2023-10-09T04:46:29;100719.56;;;11.49;100.00
8941;BME280;4505;43.406;23.226;2023-10-09T04:49:10;100719.22;;;11.39;100.00
8941;BME280;4505;43.406;23.226;2023-10-09T04:51:52;100714.56;;;11.28;100.00
8941;BME280;4505;43.406;23.226;2023-10-09T04:54:30;100731.56;;;11.27;100.00
8941;BME280;4505;43.406;23.226;2023-10-09T04:57:04;100736.88;;;11.27;100.00
8941;BME280;4505;43.406;23.226;2023-10-09T04:59:43;100740.34;;;11.27;100.00
8941;BME280;4505;43.406;23.226;2023-10-09T05:02:13;100744.66;;;11.28;100.00
8941;BME280;4505;43.406;23.226;2023-10-09T05:04:45;100740.66;;;11.44;100.00
8941;BME280;4505;43.406;23.226;2023-10-09T05:07:13;100741.91;;;11.41;100.00
8941;BME280;4505;43.406;23.226;2023-10-09T05:09:56;100746.16;;;11.49;100.00
8941;BME280;4505;43.406;23.226;2023-10-09T05:12:35;100758.38;;;11.63;100.00
8941;BME280;4505;43.406;23.226;2023-10-09T05:15:06;100755.47;;;11.71;100.00
8941;BME280;4505;43.406;23.226;2023-10-09T05:17:34;100756.03;;;11.80;100.00
8941;BME280;4505;43.406;23.226;2023-10-09T05:20:03;100755.41;;;11.78;100.00
8941;BME280;4505;43.406;23.226;2023-10-09T05:22:43;100763.31;;;11.91;100.00
8941;BME280;4505;43.406;23.226;2023-10-09T05:25:22;100767.59;;;11.92;100.00
8941;BME280;4505;43.406;23.226;2023-10-09T05:28:11;100770.97;;;12.05;100.00
8941;BME280;4505;43.406;23.226;2023-10-09T05:30:50;100764.94;;;12.16;100.00
8941;BME280;4505;43.406;23.226;2023-10-09T05:33:31;100768.53;;;12.28;100.00
8941;BME280;4505;43.406;23.226;2023-10-09T05:36:01;100768.53;;;12.28;100.00
8941;BME280;4505;43.406;23.226;2023-10-09T05:38:47;100774.09;;;12.45;100.00
8941;BME280;4505;43.406;23.226;2023-10-09T05:41:24;100775.88;;;12.51;100.00
8941;BME280;4505;43.406;23.226;2023-10-09T05:44:07;100777.50;;;12.76;100.00
8941;BME280;4505;43.406;23.226;2023-10-09T05:46:51;100769.97;;;13.10;100.00
8941;BME280;4505;43.406;23.226;2023-10-09T05:49:47;100781.81;;;13.14;100.00
8941;BME280;4505;43.406;23.226;2023-10-09T05:52:22;100781.22;;;13.59;100.00
8941;BME280;4505;43.406;23.226;2023-10-09T05:55:14;100782.41;;;13.75;100.00
8941;BME280;4505;43.406;23.226;2023-10-09T05:58:06;100786.69;;;13.64;100.00
8941;BME280;4505;43.406;23.226;2023-10-09T06:00:50;100783.00;;;13.47;100.00
8941;BME280;4505;43.406;23.226;2023-10-09T06:03:46;100787.38;;;13.60;100.00
8941;BME280;4505;43.406;23.226;2023-10-09T06:06:19;100782.19;;;13.76;100.00
8941;BME280;4505;43.406;23.226;2023-10-09T06:08:59;100780.97;;;13.90;100.00
8941;BME280;4505;43.406;23.226;2023-10-09T06:11:44;100785.56;;;14.13;100.00
8941;BME280;4505;43.406;23.226;2023-10-09T06:14:15;100789.09;;;14.48;100.00
8941;BME280;4505;43.406;23.226;2023-10-09T06:16:50;100789.19;;;14.30;100.00
8941;BME280;4505;43.406;23.226;2023-10-09T06:19:26;100787.22;;;14.83;100.00
8941;BME280;4505;43.406;23.226;2023-10-09T06:21:52;100782.59;;;14.67;100.00
8941;BME280;4505;43.406;23.226;2023-10-09T06:25:07;100794.19;;;14.84;100.00
8941;BME280;4505;43.406;23.226;2023-10-09T06:27:34;100784.31;;;14.50;100.00
8941;BME280;4505;43.406;23.226;2023-10-09T06:30:22;100794.41;;;14.25;100.00
8941;BME280;4505;43.406;23.226;2023-10-09T06:32:54;100790.84;;;13.90;100.00
8941;BME280;4505;43.406;23.226;2023-10-09T06:35:44;100795.38;;;14.01;100.00
8941;BME280;4505;43.406;23.226;2023-10-09T06:38:18;100796.94;;;14.20;100.00
8941;BME280;4505;43.406;23.226;2023-10-09T06:40:50;100788.38;;;14.41;100.00
8941;BME280;4505;43.406;23.226;2023-10-09T06:43:42;100787.91;;;14.44;100.00
8941;BME280;4505;43.406;23.226;2023-10-09T06:46:18;100796.13;;;15.12;100.00
8941;BME280;4505;43.406;23.226;2023-10-09T06:49:09;100807.69;;;14.43;100.00
8941;BME280;4505;43.406;23.226;2023-10-09T06:51:49;100817.22;;;14.62;99.04
8941;BME280;4505;43.406;23.226;2023-10-09T06:54:20;100818.25;;;14.84;98.71
8941;BME280;4505;43.406;23.226;2023-10-09T06:56:52;100820.09;;;14.95;95.71
8941;BME280;4505;43.406;23.226;2023-10-09T06:59:36;100825.38;;;14.79;95.89
8941;BME280;4505;43.406;23.226;2023-10-09T07:02:29;100823.94;;;15.11;92.49
8941;BME280;4505;43.406;23.226;2023-10-09T07:04:56;100827.75;;;15.03;90.83
8941;BME280;4505;43.406;23.226;2023-10-09T07:07:35;100836.84;;;14.79;87.17
8941;BME280;4505;43.406;23.226;2023-10-09T07:10:07;100822.66;;;14.90;89.54
8941;BME280;4505;43.406;23.226;2023-10-09T07:12:52;100829.19;;;14.94;88.39
8941;BME280;4505;43.406;23.226;2023-10-09T07:15:22;100833.00;;;14.98;89.62
8941;BME280;4505;43.406;23.226;2023-10-09T07:18:06;100834.81;;;15.32;85.20
8941;BME280;4505;43.406;23.226;2023-10-09T07:20:48;100829.56;;;15.77;80.34
8941;BME280;4505;43.406;23.226;2023-10-09T07:23:27;100822.84;;;15.35;79.83
8941;BME280;4505;43.406;23.226;2023-10-09T07:26:01;100817.66;;;15.56;75.05
8941;BME280;4505;43.406;23.226;2023-10-09T07:28:44;100825.16;;;15.71;73.77
8941;BME280;4505;43.406;23.226;2023-10-09T07:31:17;100838.69;;;15.64;73.25
8941;BME280;4505;43.406;23.226;2023-10-09T07:33:50;100842.06;;;15.71;70.64
8941;BME280;4505;43.406;23.226;2023-10-09T07:36:26;100819.09;;;15.47;73.14
8941;BME280;4505;43.406;23.226;2023-10-09T07:39:03;100820.34;;;15.85;73.49
8941;BME280;4505;43.406;23.226;2023-10-09T07:41:38;100813.50;;;15.37;79.00
8941;BME280;4505;43.406;23.226;2023-10-09T07:44:12;100807.31;;;15.37;80.35
8941;BME280;4505;43.406;23.226;2023-10-09T07:46:56;100817.25;;;15.36;79.33
8941;BME280;4505;43.406;23.226;2023-10-09T07:49:36;100804.31;;;15.73;77.20
8941;BME280;4505;43.406;23.226;2023-10-09T07:52:03;100799.53;;;15.75;77.20
8941;BME280;4505;43.406;23.226;2023-10-09T07:54:30;100800.72;;;16.12;75.77
8941;BME280;4505;43.406;23.226;2023-10-09T07:56:58;100787.16;;;16.35;72.98
8941;BME280;4505;43.406;23.226;2023-10-09T07:59:35;100777.25;;;16.69;70.12
8941;BME280;4505;43.406;23.226;2023-10-09T08:02:06;100782.31;;;16.49;70.22
8941;BME280;4505;43.406;23.226;2023-10-09T08:04:39;100788.31;;;16.56;71.83
8941;BME280;4505;43.406;23.226;2023-10-09T08:07:13;100780.50;;;16.92;69.20
8941;BME280;4505;43.406;23.226;2023-10-09T08:09:44;100784.28;;;16.75;66.82
8941;BME280;4505;43.406;23.226;2023-10-09T08:12:13;100785.94;;;16.43;68.72
8941;BME280;4505;43.406;23.226;2023-10-09T08:15:03;100777.22;;;16.47;68.26
8941;BME280;4505;43.406;23.226;2023-10-09T08:17:52;100780.94;;;16.30;69.51
8941;BME280;4505;43.406;23.226;2023-10-09T08:20:20;100783.28;;;16.59;68.38
8941;BME280;4505;43.406;23.226;2023-10-09T08:22:50;100795.41;;;16.83;64.21
8941;BME280;4505;43.406;23.226;2023-10-09T08:25:17;100785.31;;;17.34;62.96
8941;BME280;4505;43.406;23.226;2023-10-09T08:27:54;100788.31;;;17.37;60.84
8941;BME280;4505;43.406;23.226;2023-10-09T08:30:22;100792.88;;;17.15;61.15
8941;BME280;4505;43.406;23.226;2023-10-09T08:33:06;100786.66;;;17.09;64.08
8941;BME280;4505;43.406;23.226;2023-10-09T08:35:46;100800.28;;;17.46;60.81
8941;BME280;4505;43.406;23.226;2023-10-09T08:38:14;100796.06;;;17.34;61.96
8941;BME280;4505;43.406;23.226;2023-10-09T08:40:42;100802.00;;;17.36;62.20
8941;BME280;4505;43.406;23.226;2023-10-09T08:43:13;100783.94;;;17.31;64.02
8941;BME280;4505;43.406;23.226;2023-10-09T08:45:44;100787.59;;;17.68;65.54
8941;BME280;4505;43.406;23.226;2023-10-09T08:48:12;100788.03;;;17.82;64.76
8941;BME280;4505;43.406;23.226;2023-10-09T08:50:40;100779.97;;;17.12;64.77
8941;BME280;4505;43.406;23.226;2023-10-09T08:53:07;100784.63;;;17.22;64.31
8941;BME280;4505;43.406;23.226;2023-10-09T08:55:35;100783.72;;;17.54;62.44
8941;BME280;4505;43.406;23.226;2023-10-09T08:58:03;100787.91;;;17.45;61.85
8941;BME280;4505;43.406;23.226;2023-10-09T09:00:45;100773.13;;;17.69;59.94
8941;BME280;4505;43.406;23.226;2023-10-09T09:03:12;100771.66;;;18.15;55.71
8941;BME280;4505;43.406;23.226;2023-10-09T09:05:41;100788.56;;;18.79;54.20
8941;BME280;4505;43.406;23.226;2023-10-09T09:08:18;100783.28;;;17.94;52.51
8941;BME280;4505;43.406;23.226;2023-10-09T09:10:50;100769.78;;;17.84;52.56
8941;BME280;4505;43.406;23.226;2023-10-09T09:13:18;100768.00;;;17.68;53.44
8941;BME280;4505;43.406;23.226;2023-10-09T09:15:47;100762.94;;;17.45;54.39
8941;BME280;4505;43.406;23.226;2023-10-09T09:18:16;100765.50;;;18.51;50.79
8941;BME280;4505;43.406;23.226;2023-10-09T09:20:43;100759.88;;;17.89;52.60
8941;BME280;4505;43.406;23.226;2023-10-09T09:23:12;100754.03;;;17.97;50.91
8941;BME280;4505;43.406;23.226;2023-10-09T09:25:39;100743.09;;;18.40;50.89
8941;BME280;4505;43.406;23.226;2023-10-09T09:28:09;100737.06;;;17.92;51.16
8941;BME280;4505;43.406;23.226;2023-10-09T09:30:38;100737.25;;;18.17;51.73
8941;BME280;4505;43.406;23.226;2023-10-09T09:33:20;100740.50;;;17.87;51.87
8941;BME280;4505;43.406;23.226;2023-10-09T09:36:01;100726.97;;;18.40;50.56
8941;BME280;4505;43.406;23.226;2023-10-09T09:38:29;100729.81;;;18.29;50.89
8941;BME280;4505;43.406;23.226;2023-10-09T09:41:06;100723.22;;;18.41;49.86
8941;BME280;4505;43.406;23.226;2023-10-09T09:43:34;100716.94;;;19.49;47.37
8941;BME280;4505;43.406;23.226;2023-10-09T09:46:06;100716.13;;;19.49;44.88
8941;BME280;4505;43.406;23.226;2023-10-09T09:48:38;100725.53;;;19.31;46.93
8941;BME280;4505;43.406;23.226;2023-10-09T09:51:10;100701.13;;;18.91;46.64
8941;BME280;4505;43.406;23.226;2023-10-09T09:53:38;100700.78;;;19.54;45.42
8941;BME280;4505;43.406;23.226;2023-10-09T09:56:05;100692.72;;;19.79;44.95
8941;BME280;4505;43.406;23.226;2023-10-09T09:58:32;100689.47;;;19.77;44.14
8941;BME280;4505;43.406;23.226;2023-10-09T10:01:08;100691.38;;;19.67;45.20
8941;BME280;4505;43.406;23.226;2023-10-09T10:03:42;100676.34;;;20.80;42.75
8941;BME280;4505;43.406;23.226;2023-10-09T10:06:11;100668.19;;;19.91;43.61
8941;BME280;4505;43.406;23.226;2023-10-09T10:08:40;100668.94;;;21.05;41.70
8941;BME280;4505;43.406;23.226;2023-10-09T10:11:07;100670.81;;;19.26;45.69
8941;BME280;4505;43.406;23.226;2023-10-09T10:13:54;100657.09;;;20.23;44.36
8941;BME280;4505;43.406;23.226;2023-10-09T10:16:24;100645.75;;;20.94;41.87
8941;BME280;4505;43.406;23.226;2023-10-09T10:19:03;100632.25;;;20.99;41.67
8941;BME280;4505;43.406;23.226;2023-10-09T10:21:49;100637.75;;;22.24;39.37
8941;BME280;4505;43.406;23.226;2023-10-09T10:27:17;100631.41;;;21.04;39.50
8941;BME280;4505;43.406;23.226;2023-10-09T10:32:52;100636.41;;;20.72;40.73
8941;BME280;4505;43.406;23.226;2023-10-09T10:35:21;100629.81;;;21.03;40.02
8941;BME280;4505;43.406;23.226;2023-10-09T10:37:57;100617.81;;;21.24;40.04
8941;BME280;4505;43.406;23.226;2023-10-09T10:40:36;100599.53;;;21.73;39.24
8941;BME280;4505;43.406;23.226;2023-10-09T10:43:06;100607.59;;;21.50;39.08
8941;BME280;4505;43.406;23.226;2023-10-09T10:45:38;100605.00;;;20.91;40.45
8941;BME280;4505;43.406;23.226;2023-10-09T10:48:09;100600.06;;;20.59;41.07
8941;BME280;4505;43.406;23.226;2023-10-09T10:50:49;100590.97;;;21.33;39.71
8941;BME280;4505;43.406;23.226;2023-10-09T10:53:22;100600.97;;;21.66;39.05
8941;BME280;4505;43.406;23.226;2023-10-09T10:55:56;100583.34;;;21.40;39.83
8941;BME280;4505;43.406;23.226;2023-10-09T10:58:22;100576.28;;;20.66;40.76
8941;BME280;4505;43.406;23.226;2023-10-09T11:01:00;100575.53;;;20.46;41.91
8941;BME280;4505;43.406;23.226;2023-10-09T11:03:37;100569.66;;;21.26;40.36
8941;BME280;4505;43.406;23.226;2023-10-09T11:06:25;100568.88;;;20.87;40.30
8941;BME280;4505;43.406;23.226;2023-10-09T11:09:00;100551.22;;;21.04;39.92
8941;BME280;4505;43.406;23.226;2023-10-09T11:11:34;100550.47;;;22.13;38.40
8941;BME280;4505;43.406;23.226;2023-10-09T11:14:09;100546.78;;;22.46;37.42
8941;BME280;4505;43.406;23.226;2023-10-09T11:16:39;100539.59;;;22.37;37.33
8941;BME280;4505;43.406;23.226;2023-10-09T11:19:08;100537.78;;;22.56;37.18
8941;BME280;4505;43.406;23.226;2023-10-09T11:21:49;100536.50;;;20.33;40.74
8941;BME280;4505;43.406;23.226;2023-10-09T11:24:23;100526.06;;;21.09;40.54
8941;BME280;4505;43.406;23.226;2023-10-09T11:26:49;100516.59;;;21.69;39.02
8941;BME280;4505;43.406;23.226;2023-10-09T11:29:20;100509.22;;;21.74;38.16
8941;BME280;4505;43.406;23.226;2023-10-09T11:32:00;100509.28;;;22.40;37.55
8941;BME280;4505;43.406;23.226;2023-10-09T11:34:26;100503.94;;;22.35;37.34
8941;BME280;4505;43.406;23.226;2023-10-09T11:37:01;100498.84;;;22.10;37.12
8941;BME280;4505;43.406;23.226;2023-10-09T11:39:28;100493.56;;;21.48;38.35
8941;BME280;4505;43.406;23.226;2023-10-09T11:42:00;100492.25;;;21.45;38.49
8941;BME280;4505;43.406;23.226;2023-10-09T11:44:36;100483.81;;;21.75;38.62
8941;BME280;4505;43.406;23.226;2023-10-09T11:47:04;100478.69;;;21.74;38.92
8941;BME280;4505;43.406;23.226;2023-10-09T11:49:48;100471.69;;;21.20;39.19
8941;BME280;4505;43.406;23.226;2023-10-09T11:52:23;100465.19;;;21.74;38.49
8941;BME280;4505;43.406;23.226;2023-10-09T11:55:03;100459.88;;;21.64;38.72
8941;BME280;4505;43.406;23.226;2023-10-09T11:57:29;100465.13;;;21.26;38.62
8941;BME280;4505;43.406;23.226;2023-10-09T11:59:58;100454.22;;;21.37;39.00
8941;BME280;4505;43.406;23.226;2023-10-09T12:02:25;100452.16;;;20.95;39.63
8941;BME280;4505;43.406;23.226;2023-10-09T12:04:52;100444.50;;;20.35;40.51
8941;BME280;4505;43.406;23.226;2023-10-09T12:07:23;100453.44;;;20.69;40.68
8941;BME280;4505;43.406;23.226;2023-10-09T12:09:50;100436.34;;;20.78;41.08
8941;BME280;4505;43.406;23.226;2023-10-09T12:12:21;100427.03;;;20.99;40.44
8941;BME280;4505;43.406;23.226;2023-10-09T12:14:51;100413.81;;;21.50;39.55
8941;BME280;4505;43.406;23.226;2023-10-09T12:17:18;100407.97;;;22.09;38.68
8941;BME280;4505;43.406;23.226;2023-10-09T12:19:44;100411.03;;;22.39;37.84
8941;BME280;4505;43.406;23.226;2023-10-09T12:22:13;100409.44;;;22.57;37.38
8941;BME280;4505;43.406;23.226;2023-10-09T12:24:42;100401.34;;;23.62;35.82
8941;BME280;4505;43.406;23.226;2023-10-09T12:27:10;100394.28;;;24.37;34.20
8941;BME280;4505;43.406;23.226;2023-10-09T12:29:37;100403.16;;;23.39;34.84
8941;BME280;4505;43.406;23.226;2023-10-09T12:32:09;100405.47;;;23.46;35.65
8941;BME280;4505;43.406;23.226;2023-10-09T12:34:36;100397.75;;;23.07;35.86
8941;BME280;4505;43.406;23.226;2023-10-09T12:37:03;100382.31;;;23.21;35.76
8941;BME280;4505;43.406;23.226;2023-10-09T12:39:31;100375.34;;;22.88;36.25
8941;BME280;4505;43.406;23.226;2023-10-09T12:42:00;100371.44;;;23.08;36.24
8941;BME280;4505;43.406;23.226;2023-10-09T12:44:32;100373.00;;;23.54;36.11
8941;BME280;4505;43.406;23.226;2023-10-09T12:46:59;100365.28;;;23.48;35.89
8941;BME280;4505;43.406;23.226;2023-10-09T12:49:29;100373.00;;;22.31;37.81
8941;BME280;4505;43.406;23.226;2023-10-09T12:51:56;100369.50;;;21.51;38.23
8941;BME280;4505;43.406;23.226;2023-10-09T12:54:22;100361.00;;;22.88;37.30
8941;BME280;4505;43.406;23.226;2023-10-09T12:56:52;100350.28;;;23.10;36.26
8941;BME280;4505;43.406;23.226;2023-10-09T12:59:20;100339.06;;;22.57;36.58
8941;BME280;4505;43.406;23.226;2023-10-09T13:01:48;100340.78;;;22.16;37.26
8941;BME280;4505;43.406;23.226;2023-10-09T13:04:18;100336.03;;;22.08;37.54
8941;BME280;4505;43.406;23.226;2023-10-09T13:18:24;100294.72;;;22.53;37.22
8941;BME280;4505;43.406;23.226;2023-10-09T13:21:10;100290.16;;;22.81;36.80
8941;BME280;4505;43.406;23.226;2023-10-09T13:24:00;100288.75;;;22.56;36.73
8941;BME280;4505;43.406;23.226;2023-10-09T13:26:47;100287.59;;;22.89;37.41
8941;BME280;4505;43.406;23.226;2023-10-09T13:42:57;100260.19;;;23.18;36.02
8941;BME280;4505;43.406;23.226;2023-10-09T13:45:27;100253.88;;;23.09;36.16
8941;BME280;4505;43.406;23.226;2023-10-09T13:47:54;100242.25;;;23.57;35.86
8941;BME280;4505;43.406;23.226;2023-10-09T13:50:20;100234.09;;;23.93;35.35
8941;BME280;4505;43.406;23.226;2023-10-09T13:52:54;100223.34;;;24.24;34.44
8941;BME280;4505;43.406;23.226;2023-10-09T13:55:21;100223.75;;;24.70;34.21
8941;BME280;4505;43.406;23.226;2023-10-09T13:57:49;100207.81;;;24.77;33.62
8941;BME280;4505;43.406;23.226;2023-10-09T14:00:17;100206.91;;;24.29;33.74